createdAt,value
2019-01-17T00:00:38.565Z,2.22
2019-01-17T00:03:32.429Z,2.26
2019-01-17T00:06:19.104Z,2.32
2019-01-17T00:08:57.598Z,2.37
2019-01-17T00:11:46.950Z,2.43
2019-01-17T00:14:33.615Z,2.49
2019-01-17T00:17:19.263Z,2.54
2019-01-17T00:20:04.430Z,2.61
2019-01-17T00:22:49.512Z,2.65
2019-01-17T00:25:31.571Z,2.71
2019-01-17T00:28:27.280Z,2.76
2019-01-17T00:31:26.158Z,2.82
2019-01-17T00:34:12.935Z,2.87
2019-01-17T00:37:11.632Z,2.88
2019-01-17T00:40:07.248Z,2.87
2019-01-17T00:42:56.542Z,2.83
2019-01-17T00:45:43.199Z,2.83
2019-01-17T00:48:29.864Z,2.81
2019-01-17T00:51:28.580Z,2.77
2019-01-17T00:54:18.203Z,2.72
2019-01-17T00:57:03.514Z,2.69
2019-01-17T00:59:53.185Z,2.65
2019-01-17T01:02:28.714Z,2.61
2019-01-17T01:05:27.468Z,2.58
2019-01-17T01:08:19.412Z,2.56
2019-01-17T01:10:54.457Z,2.54
2019-01-17T01:13:52.954Z,2.52
2019-01-17T01:16:41.756Z,2.46
2019-01-17T01:19:24.594Z,2.43
2019-01-17T01:22:08.531Z,2.36
2019-01-17T01:24:58.216Z,2.32
2019-01-17T01:27:43.678Z,2.31
2019-01-17T01:30:44.026Z,2.28
2019-01-17T01:33:29.167Z,2.27
2019-01-17T01:36:15.837Z,2.22
2019-01-17T01:39:01.304Z,2.14
2019-01-17T01:41:46.660Z,2.06
2019-01-17T01:44:36.131Z,1.98
2019-01-17T01:47:28.817Z,1.90
2019-01-17T01:50:03.207Z,1.74
2019-01-17T01:52:45.913Z,1.48
2019-01-17T01:55:13.029Z,1.20
2019-01-17T01:57:40.120Z,0.91
2019-01-17T02:00:08.488Z,0.65
2019-01-17T02:02:35.584Z,0.43
2019-01-17T02:05:02.976Z,0.30
2019-01-17T02:07:30.072Z,0.20
2019-01-17T02:09:57.170Z,0.08
2019-01-17T02:12:24.265Z,-0.04
2019-01-17T02:14:51.373Z,-0.10
2019-01-17T02:17:18.567Z,-0.21
2019-01-17T02:19:45.668Z,-0.31
2019-01-17T02:22:12.763Z,-0.42
2019-01-17T02:24:39.857Z,-0.51
2019-01-17T02:27:06.992Z,-0.59
2019-01-17T02:29:34.140Z,-0.68
2019-01-17T02:32:01.238Z,-0.75
2019-01-17T02:34:28.327Z,-0.85
2019-01-17T02:36:55.428Z,-1.00
2019-01-17T02:39:22.546Z,-1.15
2019-01-17T02:41:49.619Z,-1.26
2019-01-17T02:44:16.709Z,-1.33
2019-01-17T02:46:43.819Z,-1.44
2019-01-17T02:49:10.908Z,-1.56
2019-01-17T02:51:38.012Z,-1.63
2019-01-17T02:54:05.111Z,-1.77
2019-01-17T02:56:32.211Z,-1.93
2019-01-17T02:58:59.317Z,-2.06
2019-01-17T03:01:26.412Z,-2.21
2019-01-17T03:03:53.508Z,-2.30
2019-01-17T03:06:20.611Z,-2.35
2019-01-17T03:08:47.707Z,-2.45
2019-01-17T03:11:14.817Z,-2.50
2019-01-17T03:13:41.909Z,-2.54
2019-01-17T03:16:08.998Z,-2.57
2019-01-17T03:18:36.103Z,-2.59
2019-01-17T03:21:03.200Z,-2.64
2019-01-17T03:23:30.325Z,-2.68
2019-01-17T03:25:57.412Z,-2.72
2019-01-17T03:28:24.510Z,-2.75
2019-01-17T03:30:51.621Z,-2.86
2019-01-17T03:33:18.717Z,-2.92
2019-01-17T03:35:45.829Z,-2.97
2019-01-17T03:38:12.930Z,-3.00
2019-01-17T03:40:40.036Z,-3.03
2019-01-17T03:43:07.235Z,-3.04
2019-01-17T03:45:34.329Z,-3.04
2019-01-17T03:48:01.424Z,-3.12
2019-01-17T03:50:28.513Z,-3.18
2019-01-17T03:52:55.607Z,-3.20
2019-01-17T03:55:23.192Z,-3.22
2019-01-17T03:57:50.296Z,-3.26
2019-01-17T04:00:20.437Z,-3.27
2019-01-17T04:02:47.632Z,-3.27
2019-01-17T04:05:14.742Z,-3.25
2019-01-17T04:07:41.935Z,-3.26
2019-01-17T04:10:10.831Z,-3.30
2019-01-17T04:12:37.942Z,-3.34
2019-01-17T04:15:05.699Z,-3.39
2019-01-17T04:17:32.803Z,-3.44
2019-01-17T04:19:59.895Z,-3.51
2019-01-17T04:22:26.990Z,-3.55
2019-01-17T04:24:57.500Z,-3.56
2019-01-17T04:27:23.079Z,-3.61
2019-01-17T04:29:50.167Z,-3.61
2019-01-17T04:32:17.278Z,-3.60
2019-01-17T04:34:44.384Z,-3.59
2019-01-17T04:37:11.510Z,-3.59
2019-01-17T04:39:38.608Z,-3.58
2019-01-17T04:42:05.708Z,-3.60
2019-01-17T04:44:32.848Z,-3.68
2019-01-17T04:46:59.954Z,-3.74
2019-01-17T04:49:27.055Z,-3.79
2019-01-17T04:51:54.149Z,-3.86
2019-01-17T04:54:21.251Z,-3.87
2019-01-17T04:56:48.346Z,-3.90
2019-01-17T04:59:15.490Z,-3.91
2019-01-17T05:01:42.590Z,-3.94
2019-01-17T05:04:09.693Z,-3.95
2019-01-17T05:06:36.795Z,-3.97
2019-01-17T05:09:06.548Z,-4.01
2019-01-17T05:11:33.663Z,-4.03
2019-01-17T05:14:00.774Z,-4.10
2019-01-17T05:16:27.873Z,-4.12
2019-01-17T05:18:54.975Z,-4.14
2019-01-17T05:21:22.076Z,-4.15
2019-01-17T05:23:49.188Z,-4.19
2019-01-17T05:26:16.307Z,-4.19
2019-01-17T05:28:43.416Z,-4.20
2019-01-17T05:31:10.533Z,-4.20
2019-01-17T05:33:37.630Z,-4.16
2019-01-17T05:36:04.776Z,-4.15
2019-01-17T05:38:31.880Z,-4.09
2019-01-17T05:40:58.979Z,-4.12
2019-01-17T05:43:26.083Z,-4.12
2019-01-17T05:45:53.190Z,-4.12
2019-01-17T05:48:20.311Z,-4.10
2019-01-17T05:50:47.413Z,-4.05
2019-01-17T05:53:14.511Z,-4.05
2019-01-17T05:55:41.632Z,-4.02
2019-01-17T05:58:08.739Z,-4.02
2019-01-17T06:00:35.828Z,-3.97
2019-01-17T06:03:03.020Z,-3.96
2019-01-17T06:05:30.124Z,-3.94
2019-01-17T06:07:57.228Z,-3.92
2019-01-17T06:10:24.337Z,-3.87
2019-01-17T06:12:52.588Z,-3.87
2019-01-17T06:15:21.895Z,-3.86
2019-01-17T06:17:48.987Z,-3.85
2019-01-17T06:20:16.969Z,-3.86
2019-01-17T06:22:44.128Z,-3.83
2019-01-17T06:25:11.257Z,-3.81
2019-01-17T06:27:38.323Z,-3.77
2019-01-17T06:30:07.240Z,-3.76
2019-01-17T06:32:34.405Z,-3.73
2019-01-17T06:35:01.514Z,-3.71
2019-01-17T06:37:28.605Z,-3.73
2019-01-17T06:39:55.719Z,-3.70
2019-01-17T06:42:22.814Z,-3.71
2019-01-17T06:44:49.916Z,-3.70
2019-01-17T06:47:17.047Z,-3.68
2019-01-17T06:49:45.229Z,-3.66
2019-01-17T06:52:12.355Z,-3.66
2019-01-17T06:54:39.453Z,-3.66
2019-01-17T06:57:06.555Z,-3.67
2019-01-17T06:59:33.643Z,-3.69
2019-01-17T07:02:00.741Z,-3.71
2019-01-17T07:04:27.841Z,-3.71
2019-01-17T07:06:54.938Z,-3.72
2019-01-17T07:09:22.052Z,-3.73
2019-01-17T07:11:49.169Z,-3.73
2019-01-17T07:14:16.279Z,-3.70
2019-01-17T07:16:43.384Z,-3.68
2019-01-17T07:19:10.504Z,-3.65
2019-01-17T07:21:37.599Z,-3.64
2019-01-17T07:24:05.201Z,-3.63
2019-01-17T07:26:32.306Z,-3.59
2019-01-17T07:28:59.404Z,-3.57
2019-01-17T07:31:26.512Z,-3.52
2019-01-17T07:33:53.601Z,-3.49
2019-01-17T07:36:20.716Z,-3.45
2019-01-17T07:38:47.912Z,-3.42
2019-01-17T07:41:15.024Z,-3.38
2019-01-17T07:43:42.148Z,-3.34
2019-01-17T07:46:09.242Z,-3.31
2019-01-17T07:48:36.364Z,-3.25
2019-01-17T07:51:03.997Z,-3.24
2019-01-17T07:53:31.110Z,-3.19
2019-01-17T07:55:58.215Z,-3.15
2019-01-17T07:58:25.324Z,-3.11
2019-01-17T08:00:52.430Z,-3.07
2019-01-17T08:03:19.531Z,-3.04
2019-01-17T08:05:46.631Z,-3.00
2019-01-17T08:08:13.772Z,-2.96
2019-01-17T08:10:40.958Z,-2.95
2019-01-17T08:13:08.057Z,-2.93
2019-01-17T08:15:35.161Z,-2.93
2019-01-17T08:18:02.253Z,-2.92
2019-01-17T08:20:29.362Z,-2.90
2019-01-17T08:22:56.463Z,-2.91
2019-01-17T08:25:23.564Z,-2.89
2019-01-17T08:27:50.667Z,-2.90
2019-01-17T08:30:20.189Z,-2.87
2019-01-17T08:32:47.281Z,-2.83
2019-01-17T08:35:14.610Z,-2.81
2019-01-17T08:37:41.747Z,-2.77
2019-01-17T08:40:20.244Z,-2.73
2019-01-17T08:42:44.986Z,-2.72
2019-01-17T08:45:12.184Z,-2.70
2019-01-17T08:47:39.299Z,-2.68
2019-01-17T08:50:07.663Z,-2.67
2019-01-17T08:52:34.775Z,-2.64
2019-01-17T08:55:01.910Z,-2.65
2019-01-17T08:57:29.004Z,-2.60
2019-01-17T08:59:56.105Z,-2.58
2019-01-17T09:02:23.240Z,-2.54
2019-01-17T09:04:50.300Z,-2.52
2019-01-17T09:07:17.431Z,-2.50
2019-01-17T09:09:44.536Z,-2.47
2019-01-17T09:12:11.658Z,-2.46
2019-01-17T09:14:38.754Z,-2.43
2019-01-17T09:17:05.852Z,-2.39
2019-01-17T09:19:32.969Z,-2.35
2019-01-17T09:22:00.070Z,-2.31
2019-01-17T09:24:27.172Z,-2.26
2019-01-17T09:26:56.271Z,-2.20
2019-01-17T09:29:23.359Z,-2.14
2019-01-17T09:31:50.466Z,-2.12
2019-01-17T09:34:17.559Z,-2.07
2019-01-17T09:36:44.659Z,-2.03
2019-01-17T09:39:11.762Z,-1.97
2019-01-17T09:41:38.846Z,-1.94
2019-01-17T09:44:06.036Z,-1.87
2019-01-17T09:46:33.166Z,-1.83
2019-01-17T09:49:00.235Z,-1.78
2019-01-17T09:51:27.334Z,-1.72
2019-01-17T09:53:54.427Z,-1.72
2019-01-17T09:56:21.546Z,-1.68
2019-01-17T09:58:48.645Z,-1.69
2019-01-17T10:01:15.758Z,-1.66
2019-01-17T10:03:42.881Z,-1.66
2019-01-17T10:06:09.992Z,-1.65
2019-01-17T10:08:37.085Z,-1.61
2019-01-17T10:11:04.196Z,-1.61
2019-01-17T10:13:32.124Z,-1.61
2019-01-17T10:16:18.561Z,-1.58
2019-01-17T10:19:48.477Z,-1.55
2019-01-17T10:22:38.933Z,-1.54
2019-01-17T10:25:54.101Z,-1.53
2019-01-17T10:28:53.410Z,-1.51
2019-01-17T10:31:50.609Z,-1.51
2019-01-17T10:34:41.784Z,-1.49
2019-01-17T10:38:04.866Z,-1.48
2019-01-17T10:41:00.721Z,-1.48
2019-01-17T10:43:52.493Z,-1.51
2019-01-17T10:47:03.943Z,-1.53
2019-01-17T10:49:59.909Z,-1.50
2019-01-17T10:53:08.890Z,-1.57
2019-01-17T10:56:41.292Z,-1.60
2019-01-17T10:59:22.609Z,-1.59
2019-01-17T11:02:27.002Z,-1.54
2019-01-17T11:05:18.489Z,-1.49
2019-01-17T11:08:08.020Z,-1.45
2019-01-17T11:11:13.676Z,-1.47
2019-01-17T11:14:10.527Z,-1.41
2019-01-17T11:17:34.281Z,-1.34
2019-01-17T11:20:42.538Z,-1.31
2019-01-17T11:23:52.993Z,-1.29
2019-01-17T11:26:59.980Z,-1.25
2019-01-17T11:29:54.774Z,-1.20
2019-01-17T11:32:50.977Z,-1.16
2019-01-17T11:35:48.493Z,-1.13
2019-01-17T11:38:52.681Z,-1.12
2019-01-17T11:41:33.261Z,-1.11
2019-01-17T11:44:26.405Z,-1.13
2019-01-17T11:47:10.304Z,-1.13
2019-01-17T11:50:15.391Z,-1.15
2019-01-17T11:53:29.376Z,-1.16
2019-01-17T11:56:40.908Z,-1.13
2019-01-17T11:59:28.745Z,-1.12
2019-01-17T12:02:11.156Z,-1.08
2019-01-17T12:04:37.241Z,-1.03
2019-01-17T12:07:23.803Z,-1.00
2019-01-17T12:09:50.941Z,-1.01
2019-01-17T12:12:21.861Z,-0.99
2019-01-17T12:14:49.089Z,-0.98
2019-01-17T12:17:16.189Z,-0.98
2019-01-17T12:19:43.282Z,-0.95
2019-01-17T12:22:10.398Z,-0.93
2019-01-17T12:24:37.505Z,-0.98
2019-01-17T12:27:04.639Z,-1.00
2019-01-17T12:29:31.727Z,-0.99
2019-01-17T12:31:59.881Z,-0.98
2019-01-17T12:34:26.988Z,-0.99
2019-01-17T12:36:54.085Z,-1.03
2019-01-17T12:39:21.199Z,-1.03
2019-01-17T12:41:48.292Z,-1.13
2019-01-17T12:44:15.389Z,-1.11
2019-01-17T12:46:42.484Z,-1.12
2019-01-17T12:49:09.592Z,-1.12
2019-01-17T12:51:36.723Z,-1.16
2019-01-17T12:54:04.016Z,-1.17
2019-01-17T12:56:31.113Z,-1.17
2019-01-17T12:58:58.224Z,-1.16
2019-01-17T13:01:25.327Z,-1.17
2019-01-17T13:03:52.422Z,-1.17
2019-01-17T13:06:19.527Z,-1.15
2019-01-17T13:08:46.624Z,-1.16
2019-01-17T13:11:13.732Z,-1.18
2019-01-17T13:13:40.828Z,-1.16
2019-01-17T13:16:07.925Z,-1.16
2019-01-17T13:18:35.037Z,-1.16
2019-01-17T13:21:02.160Z,-1.20
2019-01-17T13:23:29.240Z,-1.26
2019-01-17T13:25:56.353Z,-1.28
2019-01-17T13:28:23.459Z,-1.35
2019-01-17T13:30:50.568Z,-1.36
2019-01-17T13:33:17.700Z,-1.39
2019-01-17T13:35:44.821Z,-1.44
2019-01-17T13:38:11.927Z,-1.44
2019-01-17T13:40:39.031Z,-1.45
2019-01-17T13:43:06.119Z,-1.50
2019-01-17T13:45:33.226Z,-1.55
2019-01-17T13:48:00.331Z,-1.56
2019-01-17T13:50:27.448Z,-1.61
2019-01-17T13:52:54.559Z,-1.64
2019-01-17T13:55:21.783Z,-1.62
2019-01-17T13:57:48.885Z,-1.62
2019-01-17T14:00:18.279Z,-1.65
2019-01-17T14:02:45.508Z,-1.72
2019-01-17T14:05:13.101Z,-1.78
2019-01-17T14:07:40.211Z,-1.82
2019-01-17T14:10:07.716Z,-1.89
2019-01-17T14:12:34.818Z,-1.93
2019-01-17T14:15:02.091Z,-1.97
2019-01-17T14:17:29.184Z,-2.06
2019-01-17T14:19:56.372Z,-2.15
2019-01-17T14:22:23.465Z,-2.19
2019-01-17T14:24:50.584Z,-2.20
2019-01-17T14:27:17.683Z,-2.23
2019-01-17T14:29:44.806Z,-2.30
2019-01-17T14:32:11.908Z,-2.38
2019-01-17T14:34:39.056Z,-2.43
2019-01-17T14:37:06.164Z,-2.49
2019-01-17T14:39:33.241Z,-2.57
2019-01-17T14:42:00.350Z,-2.65
2019-01-17T14:44:27.481Z,-2.67
2019-01-17T14:46:54.595Z,-2.69
2019-01-17T14:49:21.681Z,-2.70
2019-01-17T14:51:49.211Z,-2.71
2019-01-17T14:54:16.304Z,-2.78
2019-01-17T14:56:43.454Z,-2.80
2019-01-17T14:59:10.557Z,-2.81
2019-01-17T15:01:37.666Z,-2.82
2019-01-17T15:04:04.768Z,-2.84
2019-01-17T15:06:31.869Z,-2.88
2019-01-17T15:08:58.963Z,-2.95
2019-01-17T15:11:26.079Z,-2.99
2019-01-17T15:13:53.173Z,-3.08
2019-01-17T15:16:20.812Z,-3.14
2019-01-17T15:18:47.928Z,-3.19
2019-01-17T15:21:15.011Z,-3.14
2019-01-17T15:23:42.114Z,-3.15
2019-01-17T15:26:09.217Z,-3.20
2019-01-17T15:28:36.329Z,-3.24
2019-01-17T15:31:03.546Z,-3.27
2019-01-17T15:33:30.633Z,-3.23
2019-01-17T15:35:57.740Z,-3.24
2019-01-17T15:38:24.936Z,-3.24
2019-01-17T15:40:52.043Z,-3.25
2019-01-17T15:43:19.154Z,-3.25
2019-01-17T15:45:46.261Z,-3.28
2019-01-17T15:48:13.398Z,-3.28
2019-01-17T15:50:40.454Z,-3.35
2019-01-17T15:53:07.651Z,-3.39
2019-01-17T15:55:34.784Z,-3.43
2019-01-17T15:58:01.902Z,-3.40
2019-01-17T16:00:30.717Z,-3.38
2019-01-17T16:02:57.919Z,-3.45
2019-01-17T16:05:25.124Z,-3.45
2019-01-17T16:07:52.226Z,-3.44
2019-01-17T16:10:19.319Z,-3.45
2019-01-17T16:12:46.463Z,-3.44
2019-01-17T16:15:18.544Z,-3.43
2019-01-17T16:17:45.660Z,-3.39
2019-01-17T16:20:13.237Z,-3.38
2019-01-17T16:22:40.344Z,-3.39
2019-01-17T16:25:08.782Z,-3.42
2019-01-17T16:27:41.805Z,-3.45
2019-01-17T16:30:07.492Z,-3.46
2019-01-17T16:32:34.601Z,-3.51
2019-01-17T16:35:01.702Z,-3.59
2019-01-17T16:37:28.810Z,-3.68
2019-01-17T16:39:55.933Z,-3.74
2019-01-17T16:42:23.028Z,-3.78
2019-01-17T16:44:50.124Z,-3.88
2019-01-17T16:47:17.230Z,-3.92
2019-01-17T16:49:44.406Z,-3.96
2019-01-17T16:52:11.498Z,-4.02
2019-01-17T16:54:38.651Z,-4.06
2019-01-17T16:57:05.749Z,-4.15
2019-01-17T16:59:32.883Z,-4.16
2019-01-17T17:02:00.000Z,-4.14
2019-01-17T17:04:27.108Z,-4.16
2019-01-17T17:06:54.215Z,-4.18
2019-01-17T17:09:21.343Z,-4.18
2019-01-17T17:11:48.463Z,-4.23
2019-01-17T17:14:15.908Z,-4.34
2019-01-17T17:16:44.931Z,-4.38
2019-01-17T17:19:12.057Z,-4.37
2019-01-17T17:21:40.535Z,-4.45
2019-01-17T17:24:09.641Z,-4.51
2019-01-17T17:26:36.738Z,-4.54
2019-01-17T17:29:03.851Z,-4.59
2019-01-17T17:31:30.967Z,-4.61
2019-01-17T17:33:58.065Z,-4.56
2019-01-17T17:36:25.186Z,-4.59
2019-01-17T17:38:52.299Z,-4.64
2019-01-17T17:41:19.407Z,-4.69
2019-01-17T17:43:46.519Z,-4.73
2019-01-17T17:46:13.614Z,-4.79
2019-01-17T17:48:40.717Z,-4.82
2019-01-17T17:51:07.880Z,-4.83
2019-01-17T17:53:34.982Z,-4.79
2019-01-17T17:56:02.092Z,-4.84
2019-01-17T17:58:29.241Z,-4.87
2019-01-17T18:01:21.862Z,-4.91
2019-01-17T18:03:48.972Z,-4.97
2019-01-17T18:06:16.076Z,-5.02
2019-01-17T18:08:43.175Z,-5.08
2019-01-17T18:11:10.311Z,-5.13
2019-01-17T18:13:37.440Z,-5.19
2019-01-17T18:16:04.571Z,-5.24
2019-01-17T18:18:31.672Z,-5.31
2019-01-17T18:20:58.779Z,-5.32
2019-01-17T18:23:25.907Z,-5.36
2019-01-17T18:25:53.012Z,-5.41
2019-01-17T18:28:20.125Z,-5.45
2019-01-17T18:30:47.228Z,-5.49
2019-01-17T18:33:14.352Z,-5.54
2019-01-17T18:35:41.468Z,-5.57
2019-01-17T18:38:08.588Z,-5.69
2019-01-17T18:40:35.727Z,-5.69
2019-01-17T18:43:03.236Z,-5.69
2019-01-17T18:45:30.351Z,-5.72
2019-01-17T18:47:57.484Z,-5.78
2019-01-17T18:50:26.783Z,-5.85
2019-01-17T18:52:54.016Z,-5.85
2019-01-17T18:55:21.118Z,-5.91
2019-01-17T18:57:48.239Z,-5.93
2019-01-17T19:00:22.430Z,-5.93
2019-01-17T19:02:51.397Z,-5.97
2019-01-17T19:05:19.262Z,-6.03
2019-01-17T19:07:46.931Z,-6.08
2019-01-17T19:10:16.423Z,-6.08
2019-01-17T19:12:45.456Z,-6.07
2019-01-17T19:15:18.020Z,-6.09
2019-01-17T19:17:45.352Z,-6.15
2019-01-17T19:20:15.684Z,-6.18
2019-01-17T19:22:46.389Z,-6.16
2019-01-17T19:25:14.800Z,-6.16
2019-01-17T19:27:41.995Z,-6.19
2019-01-17T19:30:12.988Z,-6.27
2019-01-17T19:32:40.110Z,-6.26
2019-01-17T19:35:07.787Z,-6.26
2019-01-17T19:37:35.000Z,-6.29
2019-01-17T19:40:02.444Z,-6.30
2019-01-17T19:42:29.637Z,-6.32
2019-01-17T19:44:56.735Z,-6.33
2019-01-17T19:47:23.875Z,-6.34
2019-01-17T19:49:51.001Z,-6.36
2019-01-17T19:52:18.578Z,-6.37
2019-01-17T19:54:45.698Z,-6.38
2019-01-17T19:57:12.809Z,-6.42
2019-01-17T19:59:39.909Z,-6.42
2019-01-17T20:02:07.133Z,-6.45
2019-01-17T20:04:34.463Z,-6.45
2019-01-17T20:07:01.802Z,-6.54
2019-01-17T20:09:29.063Z,-6.54
2019-01-17T20:11:56.311Z,-6.54
2019-01-17T20:14:23.676Z,-6.56
2019-01-17T20:16:51.085Z,-6.56
2019-01-17T20:19:18.371Z,-6.57
2019-01-17T20:21:45.711Z,-6.58
2019-01-17T20:24:14.293Z,-6.56
2019-01-17T20:26:42.444Z,-6.56
2019-01-17T20:29:09.550Z,-6.57
2019-01-17T20:31:39.613Z,-6.57
2019-01-17T20:34:06.889Z,-6.57
2019-01-17T20:36:35.310Z,-6.57
2019-01-17T20:39:04.254Z,-6.59
2019-01-17T20:41:31.357Z,-6.59
2019-01-17T20:43:58.508Z,-6.60
2019-01-17T20:46:25.941Z,-6.57
2019-01-17T20:48:53.215Z,-6.58
2019-01-17T20:51:20.444Z,-6.58
2019-01-17T20:53:49.546Z,-6.57
2019-01-17T20:56:16.893Z,-6.55
2019-01-17T20:58:45.950Z,-6.59
2019-01-17T21:01:51.797Z,-6.63
2019-01-17T21:04:18.905Z,-6.63
2019-01-17T21:06:46.028Z,-6.69
2019-01-17T21:09:15.077Z,-6.73
2019-01-17T21:11:42.502Z,-6.77
2019-01-17T21:14:09.962Z,-6.79
2019-01-17T21:16:37.117Z,-6.82
2019-01-17T21:19:05.340Z,-6.83
2019-01-17T21:21:32.471Z,-6.84
2019-01-17T21:24:01.021Z,-6.84
2019-01-17T21:26:30.018Z,-6.83
2019-01-17T21:28:57.222Z,-6.83
2019-01-17T21:31:24.448Z,-6.82
2019-01-17T21:33:51.883Z,-6.82
2019-01-17T21:36:19.212Z,-6.79
2019-01-17T21:38:46.588Z,-6.76
2019-01-17T21:41:13.685Z,-6.73
2019-01-17T21:43:42.603Z,-6.69
2019-01-17T21:46:09.825Z,-6.64
2019-01-17T21:48:37.027Z,-6.59
2019-01-17T21:51:04.161Z,-6.56
2019-01-17T21:53:31.305Z,-6.57
2019-01-17T21:56:00.283Z,-6.57
2019-01-17T21:58:29.202Z,-6.57
2019-01-17T22:00:56.467Z,-6.57
2019-01-17T22:03:23.629Z,-6.58
2019-01-17T22:05:50.844Z,-6.60
2019-01-17T22:08:18.051Z,-6.60
2019-01-17T22:10:45.196Z,-6.63
2019-01-17T22:13:12.419Z,-6.59
2019-01-17T22:15:40.800Z,-6.56
2019-01-17T22:18:08.147Z,-6.52
2019-01-17T22:20:35.611Z,-6.48
2019-01-17T22:23:04.709Z,-6.46
2019-01-17T22:25:33.055Z,-6.46
2019-01-17T22:28:00.373Z,-6.48
2019-01-17T22:30:27.724Z,-6.48
2019-01-17T22:32:57.729Z,-6.49
2019-01-17T22:35:26.317Z,-6.51
2019-01-17T22:37:53.637Z,-6.52
2019-01-17T22:40:20.893Z,-6.53
2019-01-17T22:42:49.101Z,-6.53
2019-01-17T22:45:18.912Z,-6.52
2019-01-17T22:47:48.824Z,-6.52
2019-01-17T22:50:19.324Z,-6.54
2019-01-17T22:52:46.966Z,-6.57
2019-01-17T22:55:17.088Z,-6.61
2019-01-17T22:57:46.575Z,-6.61
2019-01-17T23:00:21.990Z,-6.62
2019-01-17T23:02:49.087Z,-6.62
2019-01-17T23:05:16.303Z,-6.65
2019-01-17T23:07:43.400Z,-6.66
2019-01-17T23:10:11.793Z,-6.67
2019-01-17T23:12:39.176Z,-6.68
2019-01-17T23:15:11.044Z,-6.70
2019-01-17T23:17:40.955Z,-6.71
2019-01-17T23:20:08.518Z,-6.72
2019-01-17T23:22:35.730Z,-6.74
2019-01-17T23:25:03.937Z,-6.74
2019-01-17T23:27:32.279Z,-6.75
2019-01-17T23:30:00.482Z,-6.76
2019-01-17T23:32:30.960Z,-6.75
2019-01-17T23:34:58.286Z,-6.75
2019-01-17T23:37:25.502Z,-6.71
2019-01-17T23:39:52.836Z,-6.68
2019-01-17T23:42:24.149Z,-6.64
2019-01-17T23:44:53.145Z,-6.64
2019-01-17T23:47:20.484Z,-6.61
2019-01-17T23:49:47.801Z,-6.61
2019-01-17T23:52:14.944Z,-6.62
2019-01-17T23:54:43.364Z,-6.64
2019-01-17T23:57:10.706Z,-6.65
2019-01-17T23:59:38.017Z,-6.68
